Nearby METAR Reports

 

KRYN - Tucson/Ryan Fld, Arizona, USA
Distance from station: SSW 16mi, 26km
Updated: Sun, 17-Oct-2021 6:45am MST
Clear
Clear
 Wind from calm
Wind: Calm
Temperature: 52°F , 11°C
Dew Point: 32°F , 0°C
Humidity: 47%
Barometer: 30.05 inHg , 1017.6 hPa
Clouds: Clear
Visibility: 10 miles , 16 km
2021/10/17 13:45 KRYN 171345Z 00000KT 10SM CLR 11/00 A3005
KTUS - Tucson, Arizona, USA
Distance from station: SSE 18mi, 28km
Updated: Sun, 17-Oct-2021 5:53am MST
Clear
Clear
 Wind from SSE
Wind: SSE 10 mph , 17 km/h
Temperature: 63°F , 17°C
Dew Point: 36°F , 2°C
Humidity: 37%
Barometer: 30.08 inHg , 1018.6 hPa
Clouds: Clear
Visibility: 10 miles , 16 km
2021/10/17 12:53 KTUS 171253Z 15009KT 10SM CLR 17/02 A3008 RMK AO2 SLP146 T01720017 $
 
KDMA - Davis/Tucson, Arizona, USA
Distance from station: SE 18mi, 29km
Updated: Sun, 17-Oct-2021 5:58am MST
Clear
Clear
 Wind from SE
Wind: SE 6 mph , 9 km/h
Temperature: 61°F , 16°C
Dew Point: 36°F , 2°C
Humidity: 39%
Barometer: 30.06 inHg , 1017.9 hPa
Clouds: Clear
Visibility: 10 miles , 16 km
2021/10/17 12:58 KDMA 171258Z AUTO 13005KT 10SM CLR 16/02 A3006 RMK AO2 SLP145 T01640017 $
KCGZ - Casa Granda, Arizona, USA
Distance from station: NW 57mi, 92km
Updated: Sun, 17-Oct-2021 5:56am MST
Clear
Clear
 Wind from NE
Wind: NE 3 mph , 6 km/h
Temperature: 57°F , 14°C
Dew Point: 34°F , 1°C
Humidity: 41%
Barometer: 30.00 inHg , 1015.9 hPa
Clouds: Clear
Visibility: 10 miles , 16 km
2021/10/17 12:56 KCGZ 171256Z AUTO 05003KT 10SM CLR 14/01 A3000 RMK AO2 SLP150 T01390011
 
KALK - Pioneer Airfield, Arizona, USA
Distance from station: SE 65mi, 104km
Updated: Sun, 17-Oct-2021 5:56am MST
Clear
Clear
 Wind from NE
Wind: NE 3 mph , 6 km/h
Temperature: 55°F , 13°C
Dew Point: 34°F , 1°C
Humidity: 44%
Barometer: 30.20 inHg , 1022.7 hPa
Clouds: Clear
Visibility: 10 miles , 16 km
2021/10/17 12:56 KALK 171256Z AUTO 04003KT 10SM CLR 13/01 A3020 RMK AO2 SLP153 T01280011
KOLS - Nogales, Arizona, USA
Distance from station: S 67mi, 108km
Updated: Sun, 17-Oct-2021 5:54am MST
Clear
Clear
 Wind from calm
Wind: Calm
Temperature: 54°F , 12°C
Dew Point: 34°F , 1°C
Humidity: 47%
Barometer: 30.13 inHg , 1020.3 hPa
Clouds: Clear
Visibility: 10 miles , 16 km
2021/10/17 12:54 KOLS 171254Z AUTO 00000KT 10SM CLR 12/01 A3013 RMK AO2 SLP153 T01170006 $
 
KFHU - Fort Huachuca, Arizona, USA
Distance from station: SE 69mi, 110km
Updated: Sun, 17-Oct-2021 5:58am MST
Clear
Clear
 Wind from E
Wind: E 5 mph , 7 km/h
Temperature: 54°F , 12°C
Dew Point: 34°F , 1°C
Humidity: 47%
Barometer: 30.19 inHg , 1022.4 hPa
Clouds: Clear
Visibility: 8 miles , 13 km
2021/10/17 12:58 KFHU 171258Z AUTO 10004KT 8SM CLR 12/01 A3019 RMK AO2 SLP170 T01190006
KIWA - Chandler/Mesa, Arizona, USA
Distance from station: NNW 73mi, 117km
Updated: Sun, 17-Oct-2021 5:50am MST
Clear
Clear
 Wind from SSE
Wind: SSE 3 mph , 6 km/h
Temperature: 64°F , 18°C
Dew Point: 36°F , 2°C
Humidity: 34%
Barometer: 29.99 inHg , 1015.6 hPa
Clouds: Clear
Visibility: 10 miles , 16 km
2021/10/17 12:50 KIWA 171250Z 15003KT 10SM SKC 18/02 A2999